Time;durP1;ratioP1;P1;durP2;ratioP2;P2;SDS_P1;SDS_P2;PMS_P1;PMS_P2;Temp;Humidity;BMP_temperature;BMP_pressure;BME280_temperature;BME280_humidity;BME280_pressure;Samples;Min_cycle;Max_cycle;Signal;HPM_P1;HPM_P2
2022/07/03 00:00:21;;;;;;;6.33;3.55;;;;;;;19.46;55.96;101066.28;1752586;81;21138;-69
2022/07/03 00:02:47;;;;;;;7.28;3.40;;;;;;;19.41;56.41;101056.59;1744399;80;21095;-68
2022/07/03 00:05:14;;;;;;;6.15;3.45;;;;;;;19.38;56.40;101055.59;1741756;80;21071;-69
2022/07/03 00:07:42;;;;;;;5.65;3.22;;;;;;;19.35;56.63;101059.94;1747286;81;21457;-68
2022/07/03 00:10:09;;;;;;;6.10;2.98;;;;;;;19.30;56.63;101053.75;1753469;81;21057;-69
2022/07/03 00:12:35;;;;;;;5.90;3.05;;;;;;;19.27;57.14;101050.08;1741279;80;21101;-69
2022/07/03 00:15:02;;;;;;;9.08;3.33;;;;;;;19.22;57.39;101043.57;1757442;80;21016;-69
2022/07/03 00:17:29;;;;;;;7.45;3.22;;;;;;;19.16;57.26;101045.04;1757453;80;21128;-69
2022/07/03 00:19:55;;;;;;;5.87;2.77;;;;;;;19.09;57.48;101044.85;1742601;81;21083;-69
2022/07/03 00:22:22;;;;;;;6.15;3.40;;;;;;;19.06;57.92;101039.88;1747250;80;21026;-69
2022/07/03 00:24:56;;;;;;;7.72;3.72;;;;;;;19.01;58.32;101040.83;1722872;81;21875;-69
2022/07/03 00:27:24;;;;;;;8.78;3.30;;;;;;;18.99;58.72;101044.16;1746290;80;21587;-69
2022/07/03 00:29:50;;;;;;;9.93;3.50;;;;;;;19.01;59.04;101042.16;1746809;80;21145;-68
2022/07/03 00:32:21;;;;;;;6.83;3.10;;;;;;;19.09;58.47;101038.19;1744484;80;21026;-68
2022/07/03 00:34:51;;;;;;;6.70;2.98;;;;;;;19.12;58.09;101032.53;1723117;81;21069;-69
2022/07/03 00:37:17;;;;;;;8.20;3.20;;;;;;;19.12;58.00;101029.86;1752234;80;21115;-69
2022/07/03 00:39:44;;;;;;;7.10;3.58;;;;;;;19.11;57.96;101032.21;1750727;80;21572;-69
2022/07/03 00:42:11;;;;;;;6.25;2.92;;;;;;;19.10;58.01;101025.70;1746249;80;21087;-67
2022/07/03 00:44:54;;;;;;;6.75;2.95;;;;;;;19.08;57.80;101026.34;1764060;79;21050;-67
2022/07/03 00:47:22;;;;;;;6.45;2.95;;;;;;;19.03;57.52;101028.19;1743168;80;21056;-67
2022/07/03 00:49:51;;;;;;;7.55;3.33;;;;;;;18.99;57.75;101025.48;1751675;80;21123;-69
2022/07/03 00:52:19;;;;;;;6.80;3.02;;;;;;;18.96;58.30;101020.98;1755128;79;21161;-68
2022/07/03 00:54:54;;;;;;;5.87;3.58;;;;;;;18.88;59.12;101021.30;1751089;79;21090;-69
2022/07/03 00:57:22;;;;;;;6.60;3.08;;;;;;;18.81;59.73;101022.06;1754725;79;21114;-69
2022/07/03 00:59:49;;;;;;;9.20;3.47;;;;;;;18.71;60.19;101019.05;1756657;79;21071;-69
2022/07/03 01:02:45;;;;;;;6.55;2.65;;;;;;;18.64;60.26;101018.00;1752144;79;21148;-69
2022/07/03 01:05:27;;;;;;;7.42;3.37;;;;;;;18.59;60.11;101021.64;1752514;79;21090;-67
2022/07/03 01:08:23;;;;;;;7.72;3.37;;;;;;;18.55;59.36;101018.46;1763989;79;20980;-68
2022/07/03 01:11:07;;;;;;;7.20;2.98;;;;;;;18.51;59.72;101023.79;1754937;80;21016;-67
2022/07/03 01:14:04;;;;;;;6.17;3.00;;;;;;;18.49;59.26;101023.59;1747918;79;21529;-68
2022/07/03 01:16:54;;;;;;;6.58;3.12;;;;;;;18.42;59.00;101021.23;1754129;79;21114;-68
2022/07/03 01:19:32;;;;;;;5.78;2.67;;;;;;;18.32;59.11;101018.17;1751798;80;21034;-66
2022/07/03 01:22:22;;;;;;;7.45;3.27;;;;;;;18.27;59.39;101016.48;1699088;80;21031;-68
2022/07/03 01:25:24;;;;;;;7.92;3.25;;;;;;;18.27;59.52;101031.13;1696997;82;21048;-68
2022/07/03 01:28:09;;;;;;;6.05;3.35;;;;;;;18.31;60.56;101019.19;1751124;79;21098;-68
2022/07/03 01:30:39;;;;;;;5.17;2.90;;;;;;;18.41;60.76;101016.89;1751815;80;21687;-67
2022/07/03 01:33:25;;;;;;;5.58;2.87;;;;;;;18.45;61.44;101018.26;1744620;79;21153;-67
2022/07/03 01:36:05;;;;;;;5.95;3.25;;;;;;;18.44;61.69;101019.23;1764267;79;21110;-69
2022/07/03 01:38:35;;;;;;;7.30;3.27;;;;;;;18.43;61.79;101015.75;1757574;79;21011;-67
2022/07/03 01:41:04;;;;;;;5.12;2.75;;;;;;;18.44;61.81;101018.77;1765288;79;21058;-67
2022/07/03 01:43:34;;;;;;;8.03;3.17;;;;;;;18.44;61.73;101012.58;1754641;79;21075;-67
2022/07/03 01:46:02;;;;;;;6.58;3.35;;;;;;;18.41;61.73;101020.89;1757190;80;20987;-67
2022/07/03 01:48:30;;;;;;;6.12;3.58;;;;;;;18.39;61.94;101013.05;1755631;79;22226;-67
2022/07/03 01:50:57;;;;;;;6.95;3.25;;;;;;;18.34;62.26;101014.88;1750139;79;21391;-67
2022/07/03 01:53:28;;;;;;;8.10;3.42;;;;;;;18.35;62.57;101016.53;1753321;79;21848;-67
2022/07/03 01:57:09;;;;;;;5.80;3.60;;;;;;;18.51;62.60;101013.13;1783069;79;22539;-58
2022/07/03 01:59:36;;;;;;;6.42;3.35;;;;;;;18.54;62.45;101015.95;1743642;81;20985;-57
2022/07/03 02:02:23;;;;;;;6.10;3.65;;;;;;;18.50;62.57;101015.95;1738377;81;21094;-58
2022/07/03 02:05:05;;;;;;;8.45;3.92;;;;;;;18.44;63.03;101012.58;1701324;82;21045;-59
2022/07/03 02:08:05;;;;;;;8.15;3.90;;;;;;;18.38;63.53;101011.39;1706499;82;21078;-58
2022/07/03 02:10:36;;;;;;;8.05;3.87;;;;;;;18.36;64.28;101009.39;1693109;82;21097;-59
2022/07/03 02:13:07;;;;;;;5.80;3.30;;;;;;;18.38;64.40;101010.06;1704745;82;21555;-59
2022/07/03 02:15:35;;;;;;;6.87;3.83;;;;;;;18.41;64.02;101008.42;1712133;83;21140;-59
2022/07/03 02:18:14;;;;;;;7.47;3.40;;;;;;;18.42;63.79;101010.58;1710526;82;21410;-59
2022/07/03 02:20:40;;;;;;;5.37;3.00;;;;;;;18.35;63.52;101015.20;1705285;83;21596;-59
2022/07/03 02:23:07;;;;;;;6.17;3.25;;;;;;;18.31;63.35;101013.03;1709030;82;21597;-59
2022/07/03 02:25:37;;;;;;;7.72;4.22;;;;;;;18.28;63.30;101011.50;1702920;82;21216;-59
2022/07/03 02:28:47;;;;;;;9.98;4.50;;;;;;;18.23;63.37;101008.48;1710561;82;21143;-59
2022/07/03 02:31:15;;;;;;;8.65;4.33;;;;;;;18.20;63.46;101008.28;1747245;80;21132;-58
2022/07/03 02:33:41;;;;;;;7.58;3.90;;;;;;;18.13;63.49;101004.59;1750970;81;21482;-58
2022/07/03 02:36:10;;;;;;;6.83;3.67;;;;;;;18.09;63.27;101009.91;1751891;80;21072;-58
2022/07/03 02:38:37;;;;;;;6.70;3.40;;;;;;;18.01;63.24;101002.69;1748904;81;21030;-58
2022/07/03 02:41:15;;;;;;;7.60;3.35;;;;;;;18.01;63.11;101004.02;1706077;82;21834;-58
2022/07/03 02:43:59;;;;;;;8.78;3.80;;;;;;;18.11;63.02;101007.09;1708703;83;21128;-58
2022/07/03 02:46:49;;;;;;;6.58;3.47;;;;;;;18.16;62.73;101002.13;1697130;82;21065;-59
2022/07/03 02:49:48;;;;;;;6.97;3.62;;;;;;;18.17;62.58;100999.30;1704924;82;21075;-59
2022/07/03 02:52:47;;;;;;;5.67;3.40;;;;;;;18.18;62.94;101002.80;1680919;83;21113;-60
2022/07/03 02:55:36;;;;;;;5.10;3.10;;;;;;;18.20;62.91;101002.13;1704907;83;21257;-59
2022/07/03 02:58:42;;;;;;;6.55;3.33;;;;;;;18.24;63.13;101008.83;1723003;82;21287;-59
2022/07/03 03:01:30;;;;;;;7.28;3.30;;;;;;;18.26;62.28;101009.50;1721375;82;21049;-59
2022/07/03 03:04:21;;;;;;;5.75;2.92;;;;;;;18.28;61.91;101012.02;1727796;82;21023;-59
2022/07/03 03:07:08;;;;;;;7.15;3.67;;;;;;;18.29;61.67;101007.86;1718587;82;21015;-59
2022/07/03 03:09:44;;;;;;;6.80;2.85;;;;;;;18.30;61.96;101012.17;1668999;85;21183;-59
2022/07/03 03:12:12;;;;;;;4.97;2.45;;;;;;;18.38;62.08;101012.73;1662997;85;21019;-59
2022/07/03 03:14:44;;;;;;;5.67;2.85;;;;;;;18.49;61.46;101011.61;1659211;85;21428;-59
2022/07/03 03:17:16;;;;;;;5.20;2.35;;;;;;;18.58;60.79;101015.99;1657657;84;21078;-59
2022/07/03 03:19:54;;;;;;;5.03;2.62;;;;;;;18.68;59.98;101017.20;1675622;85;21097;-59
2022/07/03 03:22:38;;;;;;;6.40;2.20;;;;;;;18.79;59.02;101012.06;1666762;84;21144;-59
2022/07/03 03:25:05;;;;;;;4.97;2.58;;;;;;;18.87;58.70;101016.13;1666543;85;21500;-59
2022/07/03 03:27:32;;;;;;;6.55;2.77;;;;;;;18.92;59.49;101011.97;1648027;85;21034;-59
2022/07/03 03:29:59;;;;;;;6.15;2.75;;;;;;;18.97;59.66;101010.16;1663479;84;21086;-59
2022/07/03 03:32:25;;;;;;;4.50;2.40;;;;;;;19.04;59.60;101010.34;1649574;84;21035;-59
2022/07/03 03:34:52;;;;;;;4.60;1.77;;;;;;;19.08;59.24;101016.53;1651133;86;22044;-59
2022/07/03 03:37:18;;;;;;;6.78;2.58;;;;;;;19.13;58.56;101018.69;1654416;86;21565;-59
2022/07/03 03:39:45;;;;;;;6.10;2.90;;;;;;;19.17;58.19;101012.04;1653177;86;21086;-59
2022/07/03 03:42:11;;;;;;;11.20;2.52;;;;;;;19.22;58.00;101011.05;1652510;86;21059;-59
2022/07/03 03:44:38;;;;;;;4.97;2.05;;;;;;;19.26;58.01;101012.88;1650437;86;21030;-59
2022/07/03 03:47:06;;;;;;;4.92;2.10;;;;;;;19.31;57.10;101010.55;1651607;86;21533;-59
2022/07/03 03:49:33;;;;;;;6.45;2.33;;;;;;;19.38;56.59;101012.89;1654947;86;21265;-59
2022/07/03 03:51:59;;;;;;;4.95;2.05;;;;;;;19.43;56.15;101007.92;1641080;85;21149;-59
2022/07/03 03:54:26;;;;;;;4.40;2.00;;;;;;;19.48;54.88;101011.40;1649949;86;21817;-59
2022/07/03 03:56:53;;;;;;;4.62;1.92;;;;;;;19.53;54.38;101013.58;1683836;82;21106;-59
2022/07/03 03:59:19;;;;;;;4.33;2.00;;;;;;;19.56;54.15;101013.25;1698932;82;21075;-59
2022/07/03 04:01:47;;;;;;;5.80;2.17;;;;;;;19.61;54.88;101013.58;1730285;81;21115;-59
2022/07/03 04:04:17;;;;;;;6.45;1.95;;;;;;;19.63;54.55;101018.25;1735343;81;21055;-59
2022/07/03 04:06:44;;;;;;;5.05;1.75;;;;;;;19.67;54.98;101016.94;1693010;82;21129;-59
2022/07/03 04:09:12;;;;;;;4.85;1.70;;;;;;;19.72;54.19;101021.27;1691973;82;21045;-59
2022/07/03 04:11:38;;;;;;;5.08;2.27;;;;;;;19.76;54.41;101010.61;1704864;83;21144;-59
2022/07/03 04:14:06;;;;;;;4.47;1.98;;;;;;;19.80;53.80;101012.44;1694518;83;20991;-59
2022/07/03 04:16:34;;;;;;;5.50;2.40;;;;;;;19.84;54.43;101011.94;1703742;82;21049;-59
2022/07/03 04:19:01;;;;;;;5.62;2.33;;;;;;;19.90;54.07;101012.27;1704388;82;21194;-59
2022/07/03 04:21:28;;;;;;;5.25;2.20;;;;;;;19.93;53.73;101010.09;1684187;82;21018;-59
2022/07/03 04:23:55;;;;;;;5.12;2.10;;;;;;;19.96;53.81;101007.08;1679728;84;21154;-60
2022/07/03 04:26:22;;;;;;;5.58;2.30;;;;;;;19.99;53.63;101007.26;1700097;82;21092;-59
2022/07/03 04:28:48;;;;;;;5.35;2.17;;;;;;;20.06;53.86;101004.23;1727936;81;21099;-60
2022/07/03 04:31:15;;;;;;;4.87;1.90;;;;;;;20.13;53.61;101004.39;1730009;81;21110;-59
2022/07/03 04:33:41;;;;;;;6.37;1.70;;;;;;;20.20;52.86;101000.84;1728648;81;21134;-59
2022/07/03 04:36:08;;;;;;;4.70;2.10;;;;;;;20.28;51.93;100999.17;1723654;81;21077;-59
2022/07/03 04:38:35;;;;;;;6.83;2.17;;;;;;;20.34;51.26;100994.46;1726529;81;21117;-60
2022/07/03 04:41:01;;;;;;;5.45;2.15;;;;;;;20.41;50.85;100995.46;1730657;81;21253;-59
2022/07/03 04:43:28;;;;;;;4.78;2.10;;;;;;;20.48;50.16;100991.59;1730593;80;22238;-59
2022/07/03 04:45:54;;;;;;;7.10;2.27;;;;;;;20.53;49.67;100988.72;1692938;82;21532;-60
2022/07/03 04:48:21;;;;;;;4.47;1.90;;;;;;;20.61;50.05;100982.52;1738520;81;21148;-60
2022/07/03 04:50:47;;;;;;;4.05;1.75;;;;;;;20.70;50.61;100986.84;1705963;82;21087;-60
2022/07/03 04:53:14;;;;;;;5.25;1.98;;;;;;;20.80;50.78;100986.63;1690210;83;21070;-60
2022/07/03 04:55:40;;;;;;;7.25;1.70;;;;;;;20.88;50.24;100987.92;1682631;82;21065;-59
2022/07/03 04:58:07;;;;;;;5.60;2.47;;;;;;;20.93;49.04;100992.23;1700997;84;21102;-60
2022/07/03 05:00:34;;;;;;;6.30;2.15;;;;;;;21.04;48.78;100992.84;1704715;82;21131;-59
2022/07/03 05:03:01;;;;;;;4.45;1.80;;;;;;;21.11;49.30;100985.77;1705870;82;21010;-60
2022/07/03 05:05:28;;;;;;;3.98;1.75;;;;;;;21.20;49.16;100994.56;1734746;82;20998;-59
2022/07/03 05:07:56;;;;;;;6.47;2.47;;;;;;;21.29;49.62;100991.66;1719203;81;21055;-60
2022/07/03 05:10:23;;;;;;;4.60;1.87;;;;;;;21.41;48.89;100992.59;1678682;82;21110;-59
2022/07/03 05:12:49;;;;;;;7.15;1.72;;;;;;;21.47;48.30;100987.38;1705574;82;21974;-59
2022/07/03 05:15:16;;;;;;;5.97;2.45;;;;;;;21.58;48.63;100991.45;1707175;82;21123;-59
2022/07/03 05:17:43;;;;;;;4.90;2.00;;;;;;;21.68;48.41;100980.50;1702239;82;21451;-60
2022/07/03 05:20:24;;;;;;;5.37;2.08;;;;;;;21.77;48.46;100981.25;1708679;82;21063;-59
2022/07/03 05:22:53;;;;;;;4.10;1.80;;;;;;;21.86;48.29;100981.00;1681171;84;21083;-60
2022/07/03 05:25:19;;;;;;;5.35;2.02;;;;;;;22.00;47.97;100978.00;1681854;82;21802;-60
2022/07/03 05:27:47;;;;;;;3.85;1.72;;;;;;;22.12;47.38;100974.88;1703908;82;21521;-60
2022/07/03 05:30:13;;;;;;;6.00;2.58;;;;;;;22.23;47.54;100958.34;1691376;82;21151;-59
2022/07/03 05:32:41;;;;;;;5.17;1.90;;;;;;;22.38;46.88;100971.25;1732734;82;21043;-59
2022/07/03 05:35:09;;;;;;;9.80;2.17;;;;;;;22.50;45.89;100970.27;1737582;81;21035;-60
2022/07/03 05:37:35;;;;;;;4.87;1.90;;;;;;;22.62;45.45;100970.62;1737722;81;21100;-59
2022/07/03 05:40:04;;;;;;;4.28;1.70;;;;;;;22.76;45.66;100972.45;1727892;81;21137;-60
2022/07/03 05:42:30;;;;;;;4.20;1.90;;;;;;;22.87;44.57;100965.75;1697560;82;21117;-59
2022/07/03 05:44:57;;;;;;;4.00;1.72;;;;;;;22.99;44.36;100966.90;1720006;81;21043;-59
2022/07/03 05:47:23;;;;;;;4.15;1.70;;;;;;;23.12;43.69;100969.45;1723304;81;20897;-60
2022/07/03 05:49:50;;;;;;;4.03;1.75;;;;;;;23.22;43.91;100959.71;1704100;82;21833;-59
2022/07/03 05:52:17;;;;;;;4.30;2.05;;;;;;;23.30;43.39;100956.90;1703965;83;21078;-59
2022/07/03 05:54:43;;;;;;;5.05;2.00;;;;;;;23.41;45.45;100956.38;1698796;82;21628;-59
2022/07/03 05:57:10;;;;;;;4.35;1.92;;;;;;;23.48;46.23;100949.20;1706478;83;21522;-59
2022/07/03 05:59:36;;;;;;;5.85;2.10;;;;;;;23.55;46.51;100949.27;1704078;82;21047;-59
2022/07/03 06:02:04;;;;;;;4.90;1.82;;;;;;;23.62;47.49;100943.94;1704261;83;21186;-59
2022/07/03 06:04:30;;;;;;;4.17;1.90;;;;;;;23.72;47.91;100943.08;1736894;81;21502;-59
2022/07/03 06:06:57;;;;;;;4.47;2.17;;;;;;;23.81;47.82;100942.44;1740012;82;21533;-59
2022/07/03 06:09:24;;;;;;;4.78;1.87;;;;;;;23.90;47.71;100943.97;1719646;82;21770;-59
2022/07/03 06:11:50;;;;;;;4.20;1.85;;;;;;;23.99;47.65;100946.83;1698069;84;21552;-59
2022/07/03 06:14:16;;;;;;;5.83;2.27;;;;;;;24.06;47.40;100950.90;1740197;82;21691;-59
2022/07/03 06:16:44;;;;;;;4.05;1.80;;;;;;;24.12;47.17;100946.05;1715294;81;21063;-59
2022/07/03 06:19:10;;;;;;;7.15;2.17;;;;;;;24.20;47.29;100949.11;1713723;82;21596;-59
2022/07/03 06:21:37;;;;;;;4.72;2.08;;;;;;;24.25;46.47;100954.19;1701886;82;21633;-59
2022/07/03 06:24:05;;;;;;;4.95;2.20;;;;;;;24.32;46.06;100950.71;1740420;82;21135;-59
2022/07/03 06:26:31;;;;;;;11.95;2.17;;;;;;;24.39;44.69;100956.42;1719233;81;21752;-59
2022/07/03 06:28:58;;;;;;;5.17;2.10;;;;;;;24.41;43.89;100952.19;1681046;82;21599;-59
2022/07/03 06:31:24;;;;;;;4.95;1.87;;;;;;;24.41;44.46;100950.34;1738841;81;21513;-59
2022/07/03 06:33:50;;;;;;;5.67;1.72;;;;;;;24.42;45.75;100946.61;1696563;83;21154;-59
2022/07/03 06:36:17;;;;;;;4.55;1.72;;;;;;;24.48;46.54;100939.61;1713545;81;21051;-59
2022/07/03 06:38:44;;;;;;;5.45;2.30;;;;;;;24.56;45.74;100942.16;1723399;81;22417;-59
2022/07/03 06:41:10;;;;;;;4.10;2.00;;;;;;;24.63;44.33;100943.00;1699064;82;21008;-59
2022/07/03 06:43:36;;;;;;;5.00;1.72;;;;;;;24.71;44.00;100941.98;1732677;81;21023;-59
2022/07/03 06:46:03;;;;;;;8.20;2.22;;;;;;;24.79;43.56;100943.66;1735031;81;21111;-59
2022/07/03 06:48:29;;;;;;;8.45;2.30;;;;;;;24.85;41.32;100931.57;1719104;82;21097;-59
2022/07/03 06:50:56;;;;;;;5.72;2.30;;;;;;;24.90;39.45;100932.31;1731101;81;21054;-59
2022/07/03 06:53:22;;;;;;;8.63;2.62;;;;;;;24.92;39.41;100932.93;1737605;82;21111;-59
2022/07/03 06:55:49;;;;;;;6.30;2.60;;;;;;;24.94;38.81;100928.16;1732742;81;21068;-58
2022/07/03 06:58:15;;;;;;;5.95;2.30;;;;;;;24.99;38.36;100929.72;1730425;81;21074;-59
2022/07/03 07:00:43;;;;;;;7.00;2.50;;;;;;;25.05;38.86;100932.13;1712419;81;21090;-59
2022/07/03 07:03:09;;;;;;;6.40;2.30;;;;;;;25.13;39.12;100929.25;1731307;80;21256;-58
2022/07/03 07:05:36;;;;;;;9.35;2.75;;;;;;;25.21;37.98;100926.85;1729629;81;21051;-59
2022/07/03 07:08:04;;;;;;;7.37;2.85;;;;;;;25.29;38.03;100933.94;1699657;82;21094;-59
2022/07/03 07:10:30;;;;;;;7.67;3.05;;;;;;;25.39;37.83;100934.35;1735975;81;21067;-59
2022/07/03 07:12:57;;;;;;;5.83;2.60;;;;;;;25.47;37.72;100935.98;1746074;81;21043;-59
2022/07/03 07:15:23;;;;;;;4.17;2.27;;;;;;;25.52;37.23;100930.80;1734509;81;21138;-59
2022/07/03 07:17:50;;;;;;;6.12;3.10;;;;;;;25.57;37.20;100933.20;1733697;81;21067;-59
2022/07/03 07:20:16;;;;;;;5.47;2.62;;;;;;;25.64;36.65;100929.16;1727204;81;20987;-59
2022/07/03 07:22:43;;;;;;;6.92;2.85;;;;;;;25.70;36.79;100932.86;1734676;81;21174;-59
2022/07/03 07:25:09;;;;;;;5.12;2.37;;;;;;;25.75;36.57;100925.80;1738354;81;21054;-59
2022/07/03 07:27:36;;;;;;;5.37;2.70;;;;;;;25.86;37.58;100923.00;1700250;82;21052;-59
2022/07/03 07:30:04;;;;;;;5.70;2.83;;;;;;;25.98;39.38;100923.20;1695110;82;21059;-59
2022/07/03 07:32:31;;;;;;;4.45;2.45;;;;;;;26.06;38.48;100924.32;1688889;84;21051;-59
2022/07/03 07:34:57;;;;;;;4.92;2.70;;;;;;;26.12;37.73;100919.41;1685140;83;21121;-59
2022/07/03 07:37:24;;;;;;;5.45;2.70;;;;;;;26.21;37.78;100915.13;1681120;84;21036;-59
2022/07/03 07:39:50;;;;;;;5.17;2.72;;;;;;;26.28;37.09;100910.55;1687036;83;21135;-59
2022/07/03 07:42:17;;;;;;;10.20;3.20;;;;;;;26.38;37.07;100914.12;1688811;83;21077;-59
2022/07/03 07:44:43;;;;;;;6.97;2.80;;;;;;;26.45;37.44;100913.06;1686509;83;21067;-59
2022/07/03 07:47:10;;;;;;;6.83;3.15;;;;;;;26.51;36.79;100914.05;1682794;83;21139;-59
2022/07/03 07:49:36;;;;;;;5.28;3.02;;;;;;;26.58;36.70;100909.47;1675997;84;21076;-59
2022/07/03 07:52:04;;;;;;;5.85;2.95;;;;;;;26.64;36.69;100909.16;1691145;84;21144;-59
2022/07/03 07:54:31;;;;;;;5.62;3.20;;;;;;;26.71;37.34;100910.46;1692798;82;21079;-59
2022/07/03 07:56:58;;;;;;;8.98;3.67;;;;;;;26.74;37.28;100907.33;1688311;84;21099;-59
2022/07/03 07:59:24;;;;;;;5.35;2.62;;;;;;;26.76;36.89;100904.70;1693279;83;21110;-59
2022/07/03 08:07:21;;;;;;;5.78;2.45;;;;;;;26.85;37.08;100904.77;1752246;81;21125;-59
2022/07/03 08:09:48;;;;;;;6.83;3.00;;;;;;;26.90;37.15;100907.31;1749710;80;21051;-59
2022/07/03 08:12:15;;;;;;;5.30;3.12;;;;;;;26.95;36.79;100906.14;1745732;81;21122;-59
2022/07/03 08:14:41;;;;;;;5.08;2.60;;;;;;;26.96;36.60;100908.63;1748217;81;21046;-59
2022/07/03 08:17:08;;;;;;;6.47;2.40;;;;;;;27.01;36.48;100907.97;1724534;82;21038;-59
2022/07/03 08:19:35;;;;;;;6.72;3.02;;;;;;;27.08;36.38;100914.67;1739583;81;21082;-60
2022/07/03 08:22:03;;;;;;;5.65;2.85;;;;;;;27.15;35.77;100916.80;1718744;81;21105;-59
2022/07/03 08:24:29;;;;;;;5.62;2.52;;;;;;;27.21;35.06;100911.34;1736311;81;21537;-59
2022/07/03 08:26:56;;;;;;;5.25;2.42;;;;;;;27.29;35.44;100917.57;1740124;81;21534;-59
2022/07/03 08:29:22;;;;;;;8.25;2.80;;;;;;;27.33;35.68;100909.31;1719122;82;21101;-59
2022/07/03 08:31:49;;;;;;;6.33;2.52;;;;;;;27.37;35.43;100914.56;1741336;81;21049;-59
2022/07/03 08:34:16;;;;;;;12.80;3.12;;;;;;;27.42;35.35;100916.10;1743850;81;21094;-60
2022/07/03 08:36:42;;;;;;;5.45;2.85;;;;;;;27.46;34.51;100918.65;1741680;81;21546;-59
2022/07/03 08:39:09;;;;;;;5.50;2.45;;;;;;;27.48;34.63;100915.20;1734007;81;21627;-59
2022/07/03 08:41:40;;;;;;;5.75;2.75;;;;;;;27.53;34.69;100911.83;1751197;80;21132;-59
2022/07/03 08:44:09;;;;;;;4.50;2.02;;;;;;;27.59;33.94;100898.79;1750163;80;21078;-58
2022/07/03 08:46:36;;;;;;;5.92;3.40;;;;;;;27.63;33.97;100905.39;1745185;81;21018;-59
2022/07/03 08:49:02;;;;;;;4.45;2.50;;;;;;;27.70;34.69;100906.67;1723290;82;21134;-59
2022/07/03 08:51:29;;;;;;;4.03;2.12;;;;;;;27.76;34.87;100907.14;1740918;80;21090;-59
2022/07/03 08:53:56;;;;;;;4.47;2.40;;;;;;;27.86;35.39;100906.62;1737976;80;21251;-59
2022/07/03 08:56:23;;;;;;;5.30;2.20;;;;;;;27.90;34.28;100905.11;1682239;83;21130;-59
2022/07/03 08:58:49;;;;;;;5.22;2.72;;;;;;;27.95;34.19;100905.29;1706045;82;21058;-59
2022/07/03 09:01:17;;;;;;;4.45;2.22;;;;;;;27.96;34.67;100905.60;1698690;82;21106;-59
2022/07/03 09:03:45;;;;;;;4.95;2.65;;;;;;;28.03;35.16;100901.47;1736663;80;21118;-59
2022/07/03 09:06:14;;;;;;;7.00;2.83;;;;;;;28.10;35.12;100896.80;1736653;81;21171;-60
2022/07/03 09:08:41;;;;;;;6.78;3.02;;;;;;;28.14;35.69;100893.42;1732985;81;21136;-59
2022/07/03 09:11:07;;;;;;;5.50;2.95;;;;;;;28.16;36.04;100892.66;1734202;81;21004;-59
2022/07/03 09:13:35;;;;;;;6.10;3.30;;;;;;;28.20;35.88;100885.45;1737396;81;21120;-59
2022/07/03 09:16:02;;;;;;;5.97;2.75;;;;;;;28.25;35.32;100882.34;1736614;81;21113;-59
2022/07/03 09:18:40;;;;;;;4.95;2.70;;;;;;;28.33;35.53;100883.38;1737714;80;21687;-59
2022/07/03 09:21:08;;;;;;;4.97;2.95;;;;;;;28.40;35.59;100881.13;1734615;80;21498;-59
2022/07/03 09:23:38;;;;;;;5.40;2.83;;;;;;;28.37;34.05;100886.45;1735073;82;21477;-59
2022/07/03 09:26:05;;;;;;;6.67;2.90;;;;;;;28.31;34.25;100887.36;1736872;80;21758;-59
2022/07/03 09:28:51;;;;;;;4.17;2.22;;;;;;;28.31;35.21;100890.91;1739256;82;21611;-59
2022/07/03 09:31:25;;;;;;;6.28;2.72;;;;;;;28.35;35.33;100883.16;1738930;81;21067;-59
2022/07/03 09:34:05;;;;;;;5.45;3.37;;;;;;;28.47;35.49;100889.97;1731004;81;20996;-59
2022/07/03 09:36:45;;;;;;;6.78;2.60;;;;;;;28.57;34.84;100888.92;1717783;81;21067;-59
2022/07/03 09:39:37;;;;;;;5.22;2.80;;;;;;;28.73;35.33;100888.77;1725867;81;21063;-59
2022/07/03 09:42:06;;;;;;;5.95;3.02;;;;;;;28.89;35.74;100890.00;1731741;81;21110;-59
2022/07/03 09:44:45;;;;;;;6.25;2.92;;;;;;;29.03;35.35;100883.84;1700594;82;21111;-60
2022/07/03 09:47:14;;;;;;;5.45;3.30;;;;;;;29.11;35.02;100882.69;1733777;81;21077;-59
2022/07/03 09:49:54;;;;;;;6.30;3.30;;;;;;;29.18;35.63;100875.29;1726809;82;21059;-59
2022/07/03 09:52:40;;;;;;;4.95;3.00;;;;;;;29.17;33.70;100873.63;1733870;81;21097;-59
2022/07/03 09:55:15;;;;;;;4.87;3.02;;;;;;;29.00;32.63;100874.82;1717821;82;21534;-59
2022/07/03 09:57:56;;;;;;;6.00;2.77;;;;;;;28.84;33.84;100873.63;1697803;84;21131;-59
2022/07/03 10:00:25;;;;;;;4.58;2.62;;;;;;;28.80;34.33;100875.13;1728491;81;21047;-59
2022/07/03 10:03:00;;;;;;;6.42;3.35;;;;;;;28.79;34.34;100874.32;1742259;81;21724;-59
2022/07/03 10:05:28;;;;;;;;;;;;;;;28.84;34.35;100871.73;1736124;80;21586;-59
2022/07/03 10:08:02;;;;;;;8.00;3.47;;;;;;;28.87;33.14;100869.92;1739068;80;20252;-59
2022/07/03 10:10:32;;;;;;;6.20;3.65;;;;;;;28.94;34.16;100868.46;1735618;81;21150;-59
2022/07/03 10:12:59;;;;;;;4.97;2.80;;;;;;;29.01;34.56;100871.06;1740289;81;21042;-59
2022/07/03 10:15:26;;;;;;;5.33;3.02;;;;;;;29.12;33.97;100874.83;1740854;82;21072;-59
2022/07/03 10:17:57;;;;;;;5.58;2.98;;;;;;;29.20;33.46;100869.95;1738403;80;21070;-59
2022/07/03 10:20:45;;;;;;;5.92;3.10;;;;;;;29.29;33.76;100864.99;1696249;83;21081;-59
2022/07/03 10:23:12;;;;;;;6.78;3.12;;;;;;;29.38;33.75;100866.81;1700386;83;21137;-59
2022/07/03 10:25:42;;;;;;;4.75;2.90;;;;;;;29.40;33.14;100864.69;1699159;83;21153;-59
2022/07/03 10:28:12;;;;;;;6.15;3.45;;;;;;;29.36;34.03;100871.11;1706492;83;21598;-59
2022/07/03 10:30:38;;;;;;;5.17;3.30;;;;;;;29.38;33.60;100873.59;1708554;83;21058;-59
2022/07/03 10:33:05;;;;;;;4.87;2.60;;;;;;;29.39;33.93;100869.83;1709267;83;21077;-59
2022/07/03 10:35:36;;;;;;;6.62;3.00;;;;;;;29.43;33.90;100875.06;1703749;83;21985;-60
2022/07/03 10:38:14;;;;;;;4.97;2.52;;;;;;;29.46;33.38;100869.17;1702395;83;21091;-59
2022/07/03 10:46:58;;;;;;;6.30;2.90;;;;;;;29.56;33.89;100864.52;1696127;83;21507;-58
2022/07/03 10:49:24;;;;;;;5.45;3.00;;;;;;;29.53;32.30;100862.27;1691575;82;21226;-58
2022/07/03 10:52:01;;;;;;;5.35;2.67;;;;;;;29.51;31.52;100869.83;1700323;83;21566;-58
2022/07/03 10:54:38;;;;;;;5.05;2.60;;;;;;;29.50;32.68;100864.09;1691861;83;21067;-58
2022/07/03 10:57:10;;;;;;;5.22;3.08;;;;;;;29.49;33.63;100859.21;1686411;83;21074;-58
2022/07/03 10:59:43;;;;;;;4.90;2.67;;;;;;;29.52;34.19;100855.19;1694443;83;21210;-58
2022/07/03 11:02:45;;;;;;;5.05;2.60;;;;;;;29.52;33.20;100855.19;1672436;83;21133;-58
2022/07/03 11:05:19;;;;;;;5.35;3.00;;;;;;;29.49;32.09;100857.02;1653107;85;21056;-58
2022/07/03 11:07:57;;;;;;;6.62;2.87;;;;;;;29.44;32.40;100860.45;1735291;81;21000;-58
2022/07/03 11:10:29;;;;;;;4.85;2.70;;;;;;;29.37;32.54;100859.22;1735573;82;21005;-58
2022/07/03 11:13:06;;;;;;;5.03;2.98;;;;;;;29.30;32.65;100862.56;1736770;81;21527;-57
2022/07/03 11:15:40;;;;;;;5.30;2.67;;;;;;;29.21;32.99;100853.15;1737406;81;21126;-58
2022/07/03 11:18:27;;;;;;;5.87;3.00;;;;;;;29.12;32.38;100851.80;1720021;81;21064;-58
2022/07/03 11:21:06;;;;;;;8.30;3.27;;;;;;;29.01;31.86;100846.14;1729962;81;21080;-58
2022/07/03 11:23:54;;;;;;;4.75;2.90;;;;;;;28.91;31.79;100838.59;1731597;81;21706;-58
2022/07/03 11:26:22;;;;;;;5.78;2.75;;;;;;;28.83;33.73;100837.61;1734999;81;21044;-58
2022/07/03 11:28:53;;;;;;;6.33;3.25;;;;;;;28.79;34.77;100837.77;1695124;84;21148;-58
2022/07/03 11:31:22;;;;;;;5.20;2.92;;;;;;;28.74;36.23;100832.76;1694894;82;21064;-58
2022/07/03 11:33:55;;;;;;;6.75;2.75;;;;;;;28.72;36.00;100826.22;1694768;83;21062;-58
2022/07/03 11:36:31;;;;;;;5.72;3.15;;;;;;;28.70;36.07;100825.09;1737896;81;21081;-58
2022/07/03 11:39:04;;;;;;;5.12;3.08;;;;;;;28.67;37.04;100821.49;1696199;83;21106;-58
2022/07/03 11:41:40;;;;;;;6.08;3.40;;;;;;;28.61;37.15;100822.41;1733642;82;21134;-57
2022/07/03 11:44:09;;;;;;;6.28;3.15;;;;;;;28.53;36.85;100820.85;1731186;82;21639;-57
2022/07/03 11:46:38;;;;;;;6.40;2.83;;;;;;;28.46;37.25;100817.94;1731808;80;21018;-58
2022/07/03 11:49:15;;;;;;;7.87;3.45;;;;;;;28.42;37.38;100812.16;1733050;81;21020;-57
2022/07/03 11:52:02;;;;;;;5.25;3.15;;;;;;;28.38;37.73;100809.63;1736494;81;21094;-58
2022/07/03 11:54:35;;;;;;;5.67;3.30;;;;;;;28.32;37.28;100808.66;1731808;81;21121;-59